Time;durP1;ratioP1;P1;durP2;ratioP2;P2;SDS_P1;SDS_P2;PMS_P1;PMS_P2;Temp;Humidity;BMP_temperature;BMP_pressure;BME280_temperature;BME280_humidity;BME280_pressure;Samples;Min_cycle;Max_cycle;Signal;HPM_P1;HPM_P2
2022/05/03 00:00:55;;;;;;;15.40;10.00;;;;;;;;;;5075285;28;20067;-70
2022/05/03 00:03:21;;;;;;;15.10;9.93;;;;;;;;;;5075908;28;20063;-71
2022/05/03 00:05:59;;;;;;;16.77;9.88;;;;;;;;;;5075339;28;20049;-70
2022/05/03 00:08:25;;;;;;;15.63;10.27;;;;;;;;;;5075094;28;20048;-70
2022/05/03 00:11:10;;;;;;;16.13;9.95;;;;;;;;;;5075251;28;20044;-70
2022/05/03 00:13:47;;;;;;;16.17;10.65;;;;;;;;;;5075390;28;20095;-70
2022/05/03 00:16:13;;;;;;;;;;;;;;;;;;5075904;28;20515;-70
2022/05/03 00:18:40;;;;;;;15.90;11.00;;;;;;;;;;5075188;28;19920;-70
2022/05/03 00:21:06;;;;;;;16.95;11.02;;;;;;;;;;5075610;28;20060;-70
2022/05/03 00:23:32;;;;;;;;;;;;;;;;;;5075319;28;20058;-70
2022/05/03 00:25:58;;;;;;;19.02;11.77;;;;;;;;;;5075036;28;20010;-70
2022/05/03 00:28:25;;;;;;;17.40;10.85;;;;;;;;;;5074751;28;20048;-70
2022/05/03 00:30:51;;;;;;;16.67;11.85;;;;;;;;;;5074791;28;20044;-70
2022/05/03 00:33:18;;;;;;;;;;;;;;;;;;5075490;28;20045;-70
2022/05/03 00:35:44;;;;;;;17.83;12.38;;;;;;;;;;5074491;28;20303;-69
2022/05/03 00:38:10;;;;;;;18.05;13.10;;;;;;;;;;5074752;28;20055;-69
2022/05/03 00:40:44;;;;;;;18.63;12.68;;;;;;;;;;5074325;28;20042;-70
2022/05/03 00:43:23;;;;;;;17.90;12.75;;;;;;;;;;5074605;28;20055;-70
2022/05/03 00:45:55;;;;;;;19.63;13.95;;;;;;;;;;5074570;28;20477;-70
2022/05/03 00:48:46;;;;;;;21.02;13.90;;;;;;;;;;5074487;28;20139;-70
2022/05/03 00:51:29;;;;;;;19.27;13.45;;;;;;;;;;5074668;28;20041;-70
2022/05/03 00:53:58;;;;;;;18.85;12.70;;;;;;;;;;5074262;28;20059;-70
2022/05/03 00:56:34;;;;;;;18.55;13.48;;;;;;;;;;5074024;28;20488;-70
2022/05/03 00:59:19;;;;;;;18.38;13.32;;;;;;;;;;5074295;28;20434;-70
2022/05/03 01:01:45;;;;;;;18.80;13.30;;;;;;;;;;5074157;28;20051;-70
2022/05/03 01:04:12;;;;;;;22.17;13.48;;;;;;;;;;5075008;28;20127;-70
2022/05/03 01:06:47;;;;;;;17.58;12.77;;;;;;;;;;5074080;28;20052;-69
2022/05/03 01:09:17;;;;;;;16.88;12.57;;;;;;;;;;5074345;28;20055;-69
2022/05/03 01:11:43;;;;;;;18.75;13.50;;;;;;;;;;5074505;28;20091;-69
2022/05/03 01:14:15;;;;;;;19.25;12.68;;;;;;;;;;5074042;28;20056;-69
2022/05/03 01:16:44;;;;;;;16.63;12.52;;;;;;;;;;5072809;28;20044;-70
2022/05/03 01:19:10;;;;;;;16.35;12.63;;;;;;;;;;5074075;28;20134;-69
2022/05/03 01:21:48;;;;;;;17.85;12.88;;;;;;;;;;5073822;28;20052;-70
2022/05/03 01:24:27;;;;;;;21.02;14.23;;;;;;;;;;5073816;28;20048;-69
2022/05/03 01:27:05;;;;;;;19.75;14.15;;;;;;;;;;5073679;28;20527;-69
2022/05/03 01:29:32;;;;;;;19.08;14.13;;;;;;;;;;5074186;28;20048;-70
2022/05/03 01:32:02;;;;;;;18.73;14.10;;;;;;;;;;5073694;28;20048;-70
2022/05/03 01:34:30;;;;;;;17.95;13.63;;;;;;;;;;5073969;28;20049;-70
2022/05/03 01:37:15;;;;;;;18.23;12.55;;;;;;;;;;5073295;28;20484;-69
2022/05/03 01:39:52;;;;;;;19.65;14.18;;;;;;;;;;5073502;28;20132;-70
2022/05/03 01:42:21;;;;;;;20.00;13.88;;;;;;;;;;5073347;28;20480;-70
2022/05/03 01:45:05;;;;;;;18.85;14.05;;;;;;;;;;5073448;28;20044;-70
2022/05/03 01:47:50;;;;;;;18.15;13.85;;;;;;;;;;5073510;28;20129;-69
2022/05/03 01:50:25;;;;;;;16.73;12.43;;;;;;;;;;5073965;28;20055;-70
2022/05/03 01:53:00;;;;;;;18.52;12.70;;;;;;;;;;5072914;28;20135;-69
2022/05/03 01:55:35;;;;;;;17.08;13.27;;;;;;;;;;5072550;28;20045;-69
2022/05/03 01:58:20;;;;;;;16.77;12.18;;;;;;;;;;5072412;28;20151;-70
2022/05/03 02:00:51;;;;;;;16.70;12.38;;;;;;;;;;5071976;28;20105;-69
2022/05/03 02:03:31;;;;;;;17.13;12.13;;;;;;;;;;5073901;28;20063;-69
2022/05/03 02:06:09;;;;;;;21.00;13.15;;;;;;;;;;5073581;28;20055;-70
2022/05/03 02:08:46;;;;;;;19.10;14.38;;;;;;;;;;5073203;28;20098;-70
2022/05/03 02:11:33;;;;;;;17.77;13.32;;;;;;;;;;5073834;28;20365;-70
2022/05/03 02:17:15;;;;;;;19.27;14.95;;;;;;;;;;5073424;28;20044;-70
2022/05/03 02:20:04;;;;;;;19.40;14.02;;;;;;;;;;5041956;28;20045;-70
2022/05/03 02:22:55;;;;;;;20.00;15.00;;;;;;;;;;5035738;28;20049;-70
2022/05/03 02:25:27;;;;;;;19.20;15.18;;;;;;;;;;5073202;28;20575;-69
2022/05/03 02:27:57;;;;;;;21.65;15.77;;;;;;;;;;5071929;28;20609;-70
2022/05/03 02:30:24;;;;;;;18.88;14.75;;;;;;;;;;5073103;28;20041;-70
2022/05/03 02:33:02;;;;;;;20.90;16.25;;;;;;;;;;5072998;28;20049;-69
2022/05/03 02:35:31;;;;;;;21.63;16.55;;;;;;;;;;5073066;28;20084;-70
2022/05/03 02:37:58;;;;;;;22.63;17.15;;;;;;;;;;5072845;28;20051;-70
2022/05/03 02:40:28;;;;;;;23.20;18.58;;;;;;;;;;5069651;28;20052;-68
2022/05/03 02:42:54;;;;;;;22.38;17.52;;;;;;;;;;5068461;28;20059;-69
2022/05/03 02:45:20;;;;;;;22.70;17.55;;;;;;;;;;5069024;28;20040;-69
2022/05/03 02:48:17;;;;;;;24.35;18.35;;;;;;;;;;5068190;28;20441;-70
2022/05/03 02:50:43;;;;;;;20.58;16.27;;;;;;;;;;5067482;28;20045;-69
2022/05/03 02:53:10;;;;;;;21.27;16.80;;;;;;;;;;5068310;28;20449;-69
2022/05/03 02:55:36;;;;;;;20.45;15.65;;;;;;;;;;5068557;28;20481;-68
2022/05/03 02:58:14;;;;;;;20.73;16.60;;;;;;;;;;5068662;28;20127;-69
2022/05/03 03:03:53;;;;;;;24.13;18.75;;;;;;;;;;5068597;28;20063;-69
2022/05/03 03:06:23;;;;;;;23.50;17.73;;;;;;;;;;5070589;28;20044;-69
2022/05/03 03:08:51;;;;;;;25.15;19.23;;;;;;;;;;5072078;28;20226;-69
2022/05/03 03:11:24;;;;;;;25.55;19.25;;;;;;;;;;5072044;28;20493;-69
2022/05/03 03:14:04;;;;;;;23.70;18.50;;;;;;;;;;5072032;28;20044;-69
2022/05/03 03:16:33;;;;;;;23.70;18.60;;;;;;;;;;5072186;28;20048;-68
2022/05/03 03:19:07;;;;;;;25.98;19.50;;;;;;;;;;5071875;28;20056;-69
2022/05/03 03:21:35;;;;;;;28.73;20.48;;;;;;;;;;5070752;28;20097;-68
2022/05/03 03:24:01;;;;;;;26.63;20.10;;;;;;;;;;5072149;28;20055;-69
2022/05/03 03:26:31;;;;;;;27.05;20.30;;;;;;;;;;5071780;28;20566;-69
2022/05/03 03:29:00;;;;;;;25.08;18.70;;;;;;;;;;5070922;28;20040;-68
2022/05/03 03:31:26;;;;;;;29.85;19.10;;;;;;;;;;5071883;28;20059;-68
2022/05/03 03:33:52;;;;;;;;;;;;;;;;;;5070727;28;20511;-69
2022/05/03 03:36:19;;;;;;;24.50;18.92;;;;;;;;;;5071855;28;19924;-69
2022/05/03 03:38:47;;;;;;;26.38;20.15;;;;;;;;;;5071587;28;20375;-71
2022/05/03 03:41:13;;;;;;;26.17;20.60;;;;;;;;;;5071831;28;20100;-69
2022/05/03 03:43:40;;;;;;;28.27;19.88;;;;;;;;;;5071823;28;20373;-68
2022/05/03 03:46:06;;;;;;;29.27;20.27;;;;;;;;;;5071573;28;20114;-68
2022/05/03 03:48:32;;;;;;;26.98;20.85;;;;;;;;;;5070237;28;20048;-69
2022/05/03 03:50:59;;;;;;;25.58;20.15;;;;;;;;;;5071703;28;20052;-69
2022/05/03 03:53:26;;;;;;;28.65;22.52;;;;;;;;;;5070003;28;20400;-69
2022/05/03 03:55:53;;;;;;;;;;;;;;;;;;5070551;28;20231;-69
2022/05/03 03:58:20;;;;;;;33.08;22.63;;;;;;;;;;5071636;28;20210;-69
2022/05/03 04:00:49;;;;;;;28.25;21.60;;;;;;;;;;5052663;28;20121;-69
2022/05/03 04:03:15;;;;;;;29.23;23.27;;;;;;;;;;5071247;28;20393;-69
2022/05/03 04:05:42;;;;;;;30.13;22.98;;;;;;;;;;5070605;28;20430;-69
2022/05/03 04:08:08;;;;;;;27.77;21.38;;;;;;;;;;5069331;28;20044;-68
2022/05/03 04:10:34;;;;;;;31.02;21.95;;;;;;;;;;5070668;28;20048;-68
2022/05/03 04:13:00;;;;;;;30.52;23.08;;;;;;;;;;5070640;28;20060;-70
2022/05/03 04:15:26;;;;;;;31.42;24.00;;;;;;;;;;5070328;28;20040;-69
2022/05/03 04:17:53;;;;;;;31.13;24.13;;;;;;;;;;5052221;28;20056;-70
2022/05/03 04:20:19;;;;;;;32.05;24.38;;;;;;;;;;5070248;28;20461;-69
2022/05/03 04:22:45;;;;;;;32.40;25.33;;;;;;;;;;5070671;28;20093;-69
2022/05/03 04:25:12;;;;;;;32.28;24.10;;;;;;;;;;5069658;28;20123;-69
2022/05/03 04:27:38;;;;;;;;;;;;;;;;;;5069530;28;20068;-69
2022/05/03 04:30:04;;;;;;;31.40;24.85;;;;;;;;;;5069099;28;19982;-69
2022/05/03 04:32:33;;;;;;;31.17;25.00;;;;;;;;;;5068997;28;20055;-69
2022/05/03 04:34:59;;;;;;;33.22;26.83;;;;;;;;;;5068908;28;20080;-69
2022/05/03 04:37:26;;;;;;;32.67;25.80;;;;;;;;;;5069223;28;20052;-69
2022/05/03 04:39:52;;;;;;;34.17;27.05;;;;;;;;;;5068960;28;20048;-70
2022/05/03 04:42:18;;;;;;;37.45;27.35;;;;;;;;;;5068997;28;20048;-69
2022/05/03 04:44:44;;;;;;;38.00;26.85;;;;;;;;;;5051147;28;20055;-69
2022/05/03 04:47:10;;;;;;;39.17;27.73;;;;;;;;;;5068933;28;20040;-68
2022/05/03 04:49:36;;;;;;;37.35;27.65;;;;;;;;;;5069123;28;20048;-69
2022/05/03 04:52:03;;;;;;;34.55;27.83;;;;;;;;;;5068627;28;20151;-69
2022/05/03 04:54:29;;;;;;;36.80;27.02;;;;;;;;;;5069046;28;20505;-68
2022/05/03 04:57:02;;;;;;;34.72;26.63;;;;;;;;;;5068846;28;20359;-68
2022/05/03 04:59:28;;;;;;;39.92;28.67;;;;;;;;;;5066891;28;20144;-69
2022/05/03 05:01:54;;;;;;;36.83;28.13;;;;;;;;;;5068699;28;20481;-68
2022/05/03 05:04:20;;;;;;;37.85;29.05;;;;;;;;;;5068432;28;20084;-69
2022/05/03 05:06:46;;;;;;;38.08;28.67;;;;;;;;;;5067298;28;20093;-69
2022/05/03 05:09:12;;;;;;;37.90;27.92;;;;;;;;;;5066574;28;20471;-69
2022/05/03 05:11:38;;;;;;;36.55;28.10;;;;;;;;;;5068041;28;20127;-69
2022/05/03 05:14:04;;;;;;;37.95;28.35;;;;;;;;;;5068387;28;20068;-68
2022/05/03 05:16:31;;;;;;;37.47;27.90;;;;;;;;;;5068456;28;20131;-68
2022/05/03 05:18:57;;;;;;;41.40;29.30;;;;;;;;;;5067860;28;20066;-68
2022/05/03 05:21:23;;;;;;;46.08;32.03;;;;;;;;;;5068117;28;20376;-69
2022/05/03 05:23:49;;;;;;;44.53;31.17;;;;;;;;;;5067991;28;20048;-68
2022/05/03 05:26:15;;;;;;;47.35;32.28;;;;;;;;;;5067476;28;20067;-69
2022/05/03 05:28:41;;;;;;;51.15;35.80;;;;;;;;;;5068669;28;20135;-69
2022/05/03 05:31:07;;;;;;;51.78;35.60;;;;;;;;;;5068168;28;20064;-71
2022/05/03 05:33:33;;;;;;;50.80;33.97;;;;;;;;;;5067787;28;20204;-71
2022/05/03 05:35:59;;;;;;;51.97;35.97;;;;;;;;;;5067958;28;20056;-71
2022/05/03 05:38:25;;;;;;;49.38;35.17;;;;;;;;;;5067769;28;20129;-69
2022/05/03 05:40:52;;;;;;;54.72;37.00;;;;;;;;;;5068193;28;20427;-68
2022/05/03 05:43:18;;;;;;;56.40;37.53;;;;;;;;;;5067868;28;20084;-68
2022/05/03 05:45:44;;;;;;;56.28;38.08;;;;;;;;;;5068089;28;20050;-68
2022/05/03 05:48:14;;;;;;;58.13;38.65;;;;;;;;;;5068089;28;20067;-68
2022/05/03 05:50:40;;;;;;;57.65;38.67;;;;;;;;;;5066377;28;20056;-69
2022/05/03 05:55:51;;;;;;;58.00;37.80;;;;;;;;;;5067863;28;20052;-69
2022/05/03 05:58:17;;;;;;;59.17;40.38;;;;;;;;;;5067770;28;20048;-68
2022/05/03 06:00:43;;;;;;;60.95;39.17;;;;;;;;;;5067848;28;20088;-68
2022/05/03 06:03:09;;;;;;;53.50;36.55;;;;;;;;;;5067531;28;20071;-68
2022/05/03 06:05:37;;;;;;;59.65;38.78;;;;;;;;;;5067871;28;20134;-67
2022/05/03 06:08:03;;;;;;;62.63;37.55;;;;;;;;;;5067771;28;20052;-67
2022/05/03 06:10:29;;;;;;;58.20;35.10;;;;;;;;;;5067766;28;20097;-68
2022/05/03 06:12:56;;;;;;;143.35;80.22;;;;;;;;;;5068218;28;20132;-67
2022/05/03 06:15:22;;;;;;;50.55;32.83;;;;;;;;;;5067583;28;20049;-69
2022/05/03 06:17:49;;;;;;;51.08;29.60;;;;;;;;;;5049386;28;20141;-67
2022/05/03 06:20:15;;;;;;;45.95;27.73;;;;;;;;;;5066153;28;20110;-68
2022/05/03 06:22:41;;;;;;;45.00;22.65;;;;;;;;;;5066141;28;20111;-68
2022/05/03 06:25:08;;;;;;;32.65;14.35;;;;;;;;;;5067641;28;20044;-69
2022/05/03 06:27:35;;;;;;;30.90;11.93;;;;;;;;;;5067723;28;20132;-70
2022/05/03 06:30:01;;;;;;;32.35;12.25;;;;;;;;;;5067527;28;20499;-69
2022/05/03 06:32:27;;;;;;;28.67;10.43;;;;;;;;;;5067742;28;20459;-72
2022/05/03 06:34:53;;;;;;;23.95;10.15;;;;;;;;;;5067306;28;20475;-69
2022/05/03 06:37:19;;;;;;;29.02;9.80;;;;;;;;;;5067177;28;20400;-70
2022/05/03 06:39:45;;;;;;;27.95;10.10;;;;;;;;;;5071288;28;20383;-70
2022/05/03 06:42:11;;;;;;;26.40;9.82;;;;;;;;;;5071445;28;20048;-69
2022/05/03 06:44:37;;;;;;;29.15;9.23;;;;;;;;;;5069941;28;20128;-68
2022/05/03 06:47:04;;;;;;;24.42;8.68;;;;;;;;;;5071356;28;20388;-71
2022/05/03 06:49:30;;;;;;;;;;;;;;;;;;5071632;28;20139;-74
2022/05/03 06:51:56;;;;;;;25.63;8.85;;;;;;;;;;5071406;28;20000;-72
2022/05/03 06:54:22;;;;;;;24.17;8.85;;;;;;;;;;5052816;28;20127;-73
2022/05/03 06:56:48;;;;;;;26.17;8.45;;;;;;;;;;5069237;28;20094;-70
2022/05/03 06:59:14;;;;;;;23.73;8.13;;;;;;;;;;5070981;28;20051;-71
2022/05/03 07:01:40;;;;;;;31.10;9.63;;;;;;;;;;5070380;28;20124;-70
2022/05/03 07:04:06;;;;;;;29.80;9.40;;;;;;;;;;5070890;28;20398;-68
2022/05/03 07:06:32;;;;;;;31.60;9.68;;;;;;;;;;5070918;28;20205;-71
2022/05/03 07:08:58;;;;;;;28.85;9.57;;;;;;;;;;5069252;28;20106;-71
2022/05/03 07:11:25;;;;;;;28.42;9.48;;;;;;;;;;5069095;28;20053;-70
2022/05/03 07:13:51;;;;;;;;;;;;;;;;;;5071134;28;20363;-72
2022/05/03 07:16:17;;;;;;;36.35;10.18;;;;;;;;;;5070518;28;19939;-71
2022/05/03 07:24:13;;;;;;;30.83;10.02;;;;;;;;;;5071033;28;20044;-71
2022/05/03 07:26:39;;;;;;;28.92;9.52;;;;;;;;;;5070191;28;20067;-72
2022/05/03 07:29:05;;;;;;;33.58;10.32;;;;;;;;;;5070131;28;20036;-70
2022/05/03 07:31:31;;;;;;;31.15;10.23;;;;;;;;;;5070430;28;20048;-70
2022/05/03 07:33:57;;;;;;;35.63;9.70;;;;;;;;;;5069092;28;20093;-70
2022/05/03 07:36:23;;;;;;;38.08;10.63;;;;;;;;;;5070238;28;20063;-71
2022/05/03 07:38:50;;;;;;;39.70;9.85;;;;;;;;;;5051889;28;20092;-71
2022/05/03 07:41:16;;;;;;;29.23;8.20;;;;;;;;;;5070033;28;20170;-74
2022/05/03 07:43:43;;;;;;;30.25;7.82;;;;;;;;;;5070212;28;20044;-72
2022/05/03 07:46:09;;;;;;;;;;;;;;;;;;5070366;28;20135;-72
2022/05/03 07:48:35;;;;;;;29.15;8.23;;;;;;;;;;5069949;28;20002;-71
2022/05/03 07:51:01;;;;;;;27.65;8.43;;;;;;;;;;5069625;28;20044;-69
2022/05/03 07:53:27;;;;;;;26.92;7.55;;;;;;;;;;5069892;28;20094;-70
2022/05/03 07:55:53;;;;;;;28.08;7.80;;;;;;;;;;5070296;28;20048;-71
2022/05/03 07:58:21;;;;;;;26.20;6.65;;;;;;;;;;5068746;28;20044;-71
2022/05/03 08:00:48;;;;;;;23.90;7.65;;;;;;;;;;5068031;28;20052;-71
2022/05/03 08:03:14;;;;;;;24.40;8.07;;;;;;;;;;5069749;28;20460;-70
2022/05/03 08:05:40;;;;;;;;;;;;;;;;;;5070086;28;20063;-71
2022/05/03 08:08:06;;;;;;;26.15;6.97;;;;;;;;;;5069949;28;20328;-71
2022/05/03 08:10:32;;;;;;;28.83;7.45;;;;;;;;;;5069914;28;20079;-67
2022/05/03 08:12:59;;;;;;;29.75;8.02;;;;;;;;;;5068372;28;20161;-68
2022/05/03 08:15:25;;;;;;;28.08;8.02;;;;;;;;;;5069930;28;20055;-70
2022/05/03 08:17:51;;;;;;;28.90;7.55;;;;;;;;;;5070022;28;20202;-72
2022/05/03 08:20:17;;;;;;;;;;;;;;;;;;5069649;28;20036;-72
2022/05/03 08:22:43;;;;;;;30.27;6.80;;;;;;;;;;5069674;28;20339;-74
2022/05/03 08:25:10;;;;;;;26.08;7.10;;;;;;;;;;5068160;28;20044;-73
2022/05/03 08:27:38;;;;;;;;;;;;;;;;;;5069166;28;20475;-73
2022/05/03 08:30:05;;;;;;;23.75;7.13;;;;;;;;;;5069920;28;19972;-71
2022/05/03 08:32:31;;;;;;;31.52;6.70;;;;;;;;;;5069622;28;20075;-75
2022/05/03 08:34:57;;;;;;;35.35;10.98;;;;;;;;;;5069483;28;20148;-72
2022/05/03 08:42:53;;;;;;;22.67;5.30;;;;;;;;;;5069415;28;20146;-75
2022/05/03 08:45:20;;;;;;;27.02;6.65;;;;;;;;;;5067697;28;20064;-73
2022/05/03 08:47:48;;;;;;;24.30;6.00;;;;;;;;;;5069019;28;20040;-70
2022/05/03 08:50:14;;;;;;;24.20;6.70;;;;;;;;;;5068856;28;20341;-72
2022/05/03 08:52:40;;;;;;;;;;;;;;;;;;5067956;28;20131;-71
2022/05/03 08:55:06;;;;;;;20.83;5.93;;;;;;;;;;5069004;28;19959;-71
2022/05/03 08:57:33;;;;;;;27.92;6.85;;;;;;;;;;5068953;28;20127;-71
2022/05/03 08:59:59;;;;;;;;;;;;;;;;;;5068841;28;20464;-71
2022/05/03 09:02:25;;;;;;;25.65;6.50;;;;;;;;;;5067600;28;19924;-78
2022/05/03 09:04:51;;;;;;;32.35;7.10;;;;;;;;;;5050830;28;20059;-68
2022/05/03 09:07:21;;;;;;;27.50;6.28;;;;;;;;;;5069201;28;20048;-70
2022/05/03 09:09:48;;;;;;;28.70;6.13;;;;;;;;;;5068847;28;20071;-72
2022/05/03 09:12:31;;;;;;;27.45;5.80;;;;;;;;;;5068774;28;20044;-69
2022/05/03 09:15:01;;;;;;;28.25;6.25;;;;;;;;;;5069133;28;20044;-69
2022/05/03 09:17:37;;;;;;;24.38;4.97;;;;;;;;;;5068828;28;20097;-70
2022/05/03 09:25:53;;;;;;;26.88;5.53;;;;;;;;;;5068431;28;20063;-73
2022/05/03 09:28:20;;;;;;;22.38;4.97;;;;;;;;;;5067169;28;20380;-71
2022/05/03 09:30:47;;;;;;;17.83;4.50;;;;;;;;;;5068510;28;20040;-72
2022/05/03 09:33:18;;;;;;;18.08;4.60;;;;;;;;;;5068497;28;20059;-71
2022/05/03 09:35:44;;;;;;;24.10;5.00;;;;;;;;;;5068582;28;20048;-70
2022/05/03 09:38:10;;;;;;;21.27;4.68;;;;;;;;;;5068169;28;20048;-68
2022/05/03 09:40:39;;;;;;;19.80;4.97;;;;;;;;;;5067903;28;20453;-67
2022/05/03 09:43:05;;;;;;;19.98;4.45;;;;;;;;;;5067056;28;20314;-67
2022/05/03 09:45:32;;;;;;;26.90;5.68;;;;;;;;;;5068166;28;20045;-67
2022/05/03 09:47:59;;;;;;;20.40;4.50;;;;;;;;;;5068336;28;20071;-69
2022/05/03 09:50:28;;;;;;;26.27;4.78;;;;;;;;;;5068180;28;20036;-67
2022/05/03 09:52:54;;;;;;;20.10;4.93;;;;;;;;;;5066262;28;20050;-67
2022/05/03 09:55:30;;;;;;;19.58;5.43;;;;;;;;;;5068082;28;20105;-67
2022/05/03 09:58:00;;;;;;;16.67;4.72;;;;;;;;;;5068189;28;20496;-69
2022/05/03 10:00:26;;;;;;;21.15;4.75;;;;;;;;;;5067634;28;20059;-70
2022/05/03 10:02:53;;;;;;;27.60;5.15;;;;;;;;;;5067411;28;20091;-67
2022/05/03 10:05:21;;;;;;;18.55;3.70;;;;;;;;;;5066186;28;20085;-68
2022/05/03 10:07:49;;;;;;;21.75;4.55;;;;;;;;;;5067884;28;20036;-67
2022/05/03 10:10:16;;;;;;;15.65;4.40;;;;;;;;;;5067611;28;20194;-66
2022/05/03 10:12:43;;;;;;;13.75;3.65;;;;;;;;;;5067987;28;20196;-66
2022/05/03 10:15:09;;;;;;;14.88;3.88;;;;;;;;;;5067551;28;20150;-66
2022/05/03 10:20:59;;;;;;;15.90;3.88;;;;;;;;;;5066314;28;20372;-68
2022/05/03 10:23:24;;;;;;;15.70;3.85;;;;;;;;;;5065344;28;20045;-70
2022/05/03 10:25:51;;;;;;;14.77;4.10;;;;;;;;;;5067703;28;20120;-67
2022/05/03 10:28:17;;;;;;;11.57;3.38;;;;;;;;;;5067007;28;20333;-68
2022/05/03 10:31:02;;;;;;;14.43;3.55;;;;;;;;;;5066916;28;20033;-68
2022/05/03 10:33:28;;;;;;;20.77;4.18;;;;;;;;;;5067898;28;20120;-68
2022/05/03 10:35:55;;;;;;;18.25;4.47;;;;;;;;;;5067370;28;20071;-70
2022/05/03 10:38:39;;;;;;;25.30;4.60;;;;;;;;;;5066074;28;20387;-69
2022/05/03 10:41:05;;;;;;;18.48;3.90;;;;;;;;;;5066306;28;20044;-70
2022/05/03 10:43:33;;;;;;;;;;;;;;;;;;5067737;28;20127;-67
2022/05/03 10:46:09;;;;;;;22.92;4.53;;;;;;;;;;5067644;28;20070;-68
2022/05/03 10:48:36;;;;;;;19.48;3.92;;;;;;;;;;5066098;28;20040;-70
2022/05/03 10:51:05;;;;;;;28.45;4.82;;;;;;;;;;5067422;28;20048;-68
2022/05/03 10:53:37;;;;;;;21.35;3.90;;;;;;;;;;5067516;28;20045;-68
2022/05/03 10:56:06;;;;;;;13.43;3.20;;;;;;;;;;5067433;28;20163;-66
2022/05/03 10:58:34;;;;;;;17.67;4.65;;;;;;;;;;5067572;28;20086;-68
2022/05/03 11:01:06;;;;;;;15.50;3.15;;;;;;;;;;5066717;28;20136;-66
2022/05/03 11:03:33;;;;;;;14.30;3.38;;;;;;;;;;5067295;28;20153;-70
2022/05/03 11:06:27;;;;;;;19.92;8.88;;;;;;;;;;5066971;28;20048;-67
2022/05/03 11:11:40;;;;;;;13.50;3.75;;;;;;;;;;5067430;28;20095;-66
2022/05/03 11:14:12;;;;;;;62.35;8.32;;;;;;;;;;5066678;28;20136;-67
2022/05/03 11:16:38;;;;;;;21.70;4.30;;;;;;;;;;5066960;28;20045;-67
2022/05/03 11:19:14;;;;;;;60.13;8.00;;;;;;;;;;5067164;28;20122;-69
2022/05/03 11:21:41;;;;;;;16.98;3.63;;;;;;;;;;5067156;28;20036;-65
2022/05/03 11:24:17;;;;;;;16.77;4.07;;;;;;;;;;5067279;28;20045;-67
2022/05/03 11:26:43;;;;;;;21.17;5.27;;;;;;;;;;5070809;28;20106;-68
2022/05/03 11:29:12;;;;;;;22.02;4.32;;;;;;;;;;5070754;28;20363;-66
2022/05/03 11:31:38;;;;;;;14.23;3.55;;;;;;;;;;5070282;28;20516;-67
2022/05/03 11:34:06;;;;;;;18.40;4.68;;;;;;;;;;5069463;28;20052;-64
2022/05/03 11:36:32;;;;;;;24.80;4.60;;;;;;;;;;5068751;28;20049;-67
2022/05/03 11:38:58;;;;;;;;;;;;;;;;;;5071051;28;20040;-65
2022/05/03 11:41:26;;;;;;;18.17;3.63;;;;;;;;;;5071289;28;19974;-69
2022/05/03 11:43:53;;;;;;;14.10;3.38;;;;;;;;;;5070970;28;20080;-64
2022/05/03 11:46:20;;;;;;;14.15;3.60;;;;;;;;;;5068910;28;20409;-64
2022/05/03 11:48:53;;;;;;;22.10;4.60;;;;;;;;;;5069900;28;20040;-65
2022/05/03 11:57:04;;;;;;;15.60;4.25;;;;;;;;;;5070344;28;20178;-68
2022/05/03 11:59:30;;;;;;;;;;;;;;;;;;5070277;28;20063;-68
2022/05/03 12:02:15;;;;;;;12.88;3.50;;;;;;;;;;5067685;28;19965;-66
2022/05/03 12:05:02;;;;;;;16.55;3.55;;;;;;;;;;5068483;28;20075;-64
2022/05/03 12:07:28;;;;;;;15.87;3.93;;;;;;;;;;5069388;28;20040;-65
2022/05/03 12:09:54;;;;;;;13.02;3.45;;;;;;;;;;5069884;28;20387;-65
2022/05/03 12:15:24;;;;;;;12.35;3.20;;;;;;;;;;5069649;28;20048;-64
2022/05/03 12:18:00;;;;;;;15.50;3.60;;;;;;;;;;5069661;28;20048;-65
2022/05/03 12:20:29;;;;;;;18.63;3.70;;;;;;;;;;5068283;28;20068;-66
2022/05/03 12:23:13;;;;;;;17.27;4.00;;;;;;;;;;5068038;28;20379;-66
2022/05/03 12:25:39;;;;;;;19.70;4.18;;;;;;;;;;5069748;28;20081;-66
2022/05/03 12:28:06;;;;;;;17.40;3.72;;;;;;;;;;5069378;28;20067;-65
2022/05/03 12:30:32;;;;;;;17.08;3.60;;;;;;;;;;5069662;28;20048;-66
2022/05/03 12:33:02;;;;;;;14.93;3.50;;;;;;;;;;5069293;28;20048;-66
2022/05/03 12:35:29;;;;;;;15.43;3.58;;;;;;;;;;5067565;28;20040;-64
2022/05/03 12:37:55;;;;;;;14.82;3.10;;;;;;;;;;5069219;28;20040;-67
2022/05/03 12:40:21;;;;;;;;;;;;;;;;;;5069648;28;20040;-66
2022/05/03 12:42:47;;;;;;;16.63;3.58;;;;;;;;;;5069282;28;19992;-64
2022/05/03 12:45:13;;;;;;;16.88;3.38;;;;;;;;;;5067537;28;20076;-64
2022/05/03 12:47:39;;;;;;;17.92;3.72;;;;;;;;;;5067948;28;20064;-64
2022/05/03 12:50:06;;;;;;;21.90;4.95;;;;;;;;;;5069189;28;20037;-65
2022/05/03 12:52:32;;;;;;;17.42;4.13;;;;;;;;;;5067514;28;20036;-66
2022/05/03 12:54:59;;;;;;;19.52;4.05;;;;;;;;;;5068848;28;20218;-64
2022/05/03 13:00:11;;;;;;;17.65;4.32;;;;;;;;;;5068804;28;20430;-65
2022/05/03 13:02:38;;;;;;;26.58;4.80;;;;;;;;;;5066764;28;20345;-64
2022/05/03 13:05:04;;;;;;;21.10;4.28;;;;;;;;;;5068905;28;20096;-65
2022/05/03 13:07:31;;;;;;;19.20;4.07;;;;;;;;;;5068625;28;20036;-64
2022/05/03 13:09:57;;;;;;;14.38;4.15;;;;;;;;;;5069120;28;20072;-64
2022/05/03 13:12:23;;;;;;;31.83;4.88;;;;;;;;;;5068976;28;20088;-64
2022/05/03 13:14:49;;;;;;;16.48;3.97;;;;;;;;;;5068777;28;20047;-66
2022/05/03 13:17:15;;;;;;;18.83;4.45;;;;;;;;;;5068266;28;20092;-65
2022/05/03 13:19:41;;;;;;;16.63;3.83;;;;;;;;;;5068175;28;20138;-65
2022/05/03 13:22:07;;;;;;;16.60;3.33;;;;;;;;;;5066853;28;20119;-64
2022/05/03 13:24:33;;;;;;;23.60;5.45;;;;;;;;;;5068177;28;20453;-64
2022/05/03 13:26:59;;;;;;;19.95;4.03;;;;;;;;;;5066538;28;20448;-64
2022/05/03 13:29:25;;;;;;;28.90;4.65;;;;;;;;;;5068375;28;20045;-63
2022/05/03 13:31:52;;;;;;;43.05;6.18;;;;;;;;;;5068485;28;20051;-65
2022/05/03 13:34:18;;;;;;;16.08;3.88;;;;;;;;;;5066498;28;20443;-64
2022/05/03 13:42:13;;;;;;;16.88;3.80;;;;;;;;;;5068258;28;20105;-66
2022/05/03 13:44:40;;;;;;;19.75;4.15;;;;;;;;;;5067914;28;20055;-67
2022/05/03 13:47:08;;;;;;;;;;;;;;;;;;5066492;28;20498;-66
2022/05/03 13:49:34;;;;;;;15.30;3.85;;;;;;;;;;5067791;28;19931;-66
2022/05/03 13:52:00;;;;;;;19.75;4.60;;;;;;;;;;5067888;28;20467;-66
2022/05/03 13:54:26;;;;;;;16.00;3.78;;;;;;;;;;5068376;28;20318;-65
2022/05/03 13:56:53;;;;;;;15.75;3.97;;;;;;;;;;5068065;28;20076;-65
2022/05/03 13:59:19;;;;;;;12.18;3.60;;;;;;;;;;5067801;28;20040;-64
2022/05/03 14:01:45;;;;;;;16.77;3.92;;;;;;;;;;5068043;28;20333;-65
2022/05/03 14:04:11;;;;;;;;;;;;;;;;;;5068039;28;20048;-66
2022/05/03 14:06:37;;;;;;;16.25;4.22;;;;;;;;;;5067882;28;20046;-65
2022/05/03 14:09:04;;;;;;;15.95;3.85;;;;;;;;;;5067887;28;20094;-65
2022/05/03 14:11:32;;;;;;;12.90;3.85;;;;;;;;;;5067811;28;20076;-66
2022/05/03 14:13:58;;;;;;;19.95;4.88;;;;;;;;;;5067692;28;20044;-66
2022/05/03 14:16:24;;;;;;;16.02;4.38;;;;;;;;;;5067429;28;20197;-66
2022/05/03 14:18:50;;;;;;;21.95;4.18;;;;;;;;;;5067424;28;20364;-65
2022/05/03 14:21:16;;;;;;;27.13;4.40;;;;;;;;;;5049398;28;20470;-65
2022/05/03 14:23:42;;;;;;;15.95;4.00;;;;;;;;;;5067583;28;20139;-67
2022/05/03 14:26:10;;;;;;;16.85;4.10;;;;;;;;;;5067391;28;20056;-66
2022/05/03 14:28:37;;;;;;;19.25;4.82;;;;;;;;;;5067470;28;20119;-65
2022/05/03 14:31:03;;;;;;;16.23;4.25;;;;;;;;;;5067854;28;20040;-68
2022/05/03 14:33:29;;;;;;;15.63;4.10;;;;;;;;;;5067641;28;20157;-66
2022/05/03 14:35:55;;;;;;;14.15;3.95;;;;;;;;;;5067554;28;20052;-65
2022/05/03 14:38:21;;;;;;;14.63;4.00;;;;;;;;;;5032668;28;20433;-64
2022/05/03 14:40:47;;;;;;;12.77;4.18;;;;;;;;;;5067490;28;20040;-64
2022/05/03 14:43:13;;;;;;;13.27;3.83;;;;;;;;;;5067675;28;20045;-66
2022/05/03 14:45:39;;;;;;;12.18;3.95;;;;;;;;;;5067585;28;20110;-64
2022/05/03 14:48:06;;;;;;;13.90;4.00;;;;;;;;;;5067569;28;20041;-64
2022/05/03 14:50:34;;;;;;;15.77;3.90;;;;;;;;;;5067254;28;20102;-65
2022/05/03 14:53:00;;;;;;;18.48;3.78;;;;;;;;;;5065844;28;20094;-68
2022/05/03 14:55:26;;;;;;;16.02;4.13;;;;;;;;;;5067232;28;20040;-67
2022/05/03 15:03:22;;;;;;;15.90;4.00;;;;;;;;;;5070752;28;20060;-65
2022/05/03 15:05:48;;;;;;;;;;;;;;;;;;5071090;28;20480;-64
2022/05/03 15:08:14;;;;;;;13.65;4.07;;;;;;;;;;5070896;28;19974;-65
2022/05/03 15:10:40;;;;;;;;;;;;;;;;;;5069691;28;20063;-65
2022/05/03 15:13:08;;;;;;;18.17;4.13;;;;;;;;;;5071153;28;19946;-65
2022/05/03 15:15:34;;;;;;;18.70;3.90;;;;;;;;;;5070663;28;20140;-65
2022/05/03 15:18:01;;;;;;;17.00;4.20;;;;;;;;;;5071046;28;20128;-65
2022/05/03 15:20:29;;;;;;;16.20;3.70;;;;;;;;;;5070783;28;20036;-65
2022/05/03 15:25:44;;;;;;;15.07;3.92;;;;;;;;;;5070475;28;20140;-64
2022/05/03 15:28:10;;;;;;;15.60;3.90;;;;;;;;;;5070724;28;20096;-65
2022/05/03 15:30:36;;;;;;;;;;;;;;;;;;5070749;28;20080;-65
2022/05/03 15:33:03;;;;;;;17.00;4.22;;;;;;;;;;5070781;28;20333;-64
2022/05/03 15:35:30;;;;;;;;;;;;;;;;;;5052816;28;20109;-65
2022/05/03 15:37:56;;;;;;;16.35;3.78;;;;;;;;;;5070230;28;19916;-64